Time;durP1;ratioP1;P1;durP2;ratioP2;P2;SDS_P1;SDS_P2;PMS_P1;PMS_P2;Temp;Humidity;BMP_temperature;BMP_pressure;BME280_temperature;BME280_humidity;BME280_pressure;Samples;Min_cycle;Max_cycle;Signal;HPM_P1;HPM_P2
2022/05/03 00:01:02;;;;;;;2.43;0.73;;;10.40;99.90;;;;;;5016796;28;20443;-86
2022/05/03 00:03:35;;;;;;;1.07;0.67;;;10.40;99.90;;;;;;5017323;28;20507;-86
2022/05/03 00:06:13;;;;;;;0.80;0.70;;;10.30;99.90;;;;;;5016894;28;20435;-85
2022/05/03 00:08:45;;;;;;;1.40;1.03;;;10.30;99.90;;;;;;5019394;28;20479;-85
2022/05/03 00:11:20;;;;;;;1.00;0.97;;;10.30;99.90;;;;;;5016606;28;20431;-85
2022/05/03 00:13:51;;;;;;;0.70;0.63;;;10.20;99.90;;;;;;5016926;28;20435;-86
2022/05/03 00:16:20;;;;;;;1.07;0.60;;;10.10;99.90;;;;;;5016676;28;20436;-85
2022/05/03 00:18:47;;;;;;;1.77;1.00;;;10.10;99.90;;;;;;5016275;28;20994;-85
2022/05/03 00:21:15;;;;;;;0.63;0.50;;;10.10;99.90;;;;;;5016332;28;20951;-86
2022/05/03 00:23:44;;;;;;;0.70;0.70;;;10.10;99.90;;;;;;5016173;28;20443;-86
2022/05/03 00:26:12;;;;;;;4.90;1.00;;;10.10;99.90;;;;;;5016755;28;20447;-86
2022/05/03 00:28:39;;;;;;;3.70;1.67;;;10.10;99.90;;;;;;5016511;28;20464;-86
2022/05/03 00:31:08;;;;;;;0.67;0.67;;;10.10;99.90;;;;;;5016415;28;20463;-86
2022/05/03 00:33:34;;;;;;;2.30;1.40;;;10.10;99.90;;;;;;5016191;28;20487;-85
2022/05/03 00:36:01;;;;;;;1.33;1.20;;;10.00;99.90;;;;;;5016078;28;20443;-85
2022/05/03 00:38:34;;;;;;;1.73;1.00;;;10.00;99.90;;;;;;5015939;28;20452;-86
2022/05/03 00:41:05;;;;;;;3.60;0.80;;;10.00;99.90;;;;;;5016493;28;21005;-86
2022/05/03 00:43:40;;;;;;;0.70;0.60;;;10.00;99.90;;;;;;5016110;28;20468;-85
2022/05/03 00:46:13;;;;;;;0.73;0.73;;;10.00;99.90;;;;;;5016137;28;20411;-85
2022/05/03 00:49:08;;;;;;;2.80;0.77;;;10.00;99.90;;;;;;5016139;28;20474;-85
2022/05/03 00:51:45;;;;;;;1.87;0.70;;;10.00;99.90;;;;;;5015817;28;20442;-86
2022/05/03 00:54:31;;;;;;;1.47;0.80;;;10.00;99.90;;;;;;5016039;28;20435;-86
2022/05/03 00:57:15;;;;;;;1.70;0.87;;;10.00;99.90;;;;;;5014975;28;20444;-86
2022/05/03 01:00:02;;;;;;;0.80;0.80;;;10.00;99.90;;;;;;5015526;28;20936;-85
2022/05/03 01:02:41;;;;;;;1.00;0.90;;;9.90;99.90;;;;;;5015616;28;20466;-86
2022/05/03 01:05:10;;;;;;;3.70;0.70;;;9.90;99.90;;;;;;5015538;28;20432;-86
2022/05/03 01:07:43;;;;;;;1.47;0.90;;;9.90;99.90;;;;;;5015828;28;20456;-86
2022/05/03 01:10:18;;;;;;;0.93;0.70;;;9.90;99.90;;;;;;5015733;28;20494;-85
2022/05/03 01:12:58;;;;;;;1.50;1.40;;;9.80;99.90;;;;;;5015329;28;20421;-85
2022/05/03 01:15:27;;;;;;;0.50;0.50;;;9.80;99.90;;;;;;5015341;28;20907;-86
2022/05/03 01:18:19;;;;;;;1.20;1.10;;;9.70;99.90;;;;;;5015443;28;20440;-85
2022/05/03 01:20:59;;;;;;;2.50;1.20;;;9.70;99.90;;;;;;5015303;28;20427;-85
2022/05/03 01:23:43;;;;;;;2.73;0.60;;;9.70;99.90;;;;;;5015223;28;20455;-85
2022/05/03 01:26:47;;;;;;;0.80;0.80;;;9.70;99.90;;;;;;5015528;28;20470;-86
2022/05/03 01:29:36;;;;;;;3.10;0.63;;;9.60;99.90;;;;;;5015328;28;20525;-85
2022/05/03 01:32:05;;;;;;;1.07;0.60;;;9.50;99.90;;;;;;5012366;28;20780;-85
2022/05/03 01:34:32;;;;;;;0.50;0.50;;;9.50;99.90;;;;;;5015275;28;20436;-86
2022/05/03 01:37:35;;;;;;;0.67;0.67;;;9.50;99.90;;;;;;5015191;28;20455;-85
2022/05/03 01:40:07;;;;;;;0.53;0.53;;;9.50;99.90;;;;;;4984886;28;20917;-85
2022/05/03 01:42:53;;;;;;;1.00;0.63;;;9.40;99.90;;;;;;5017798;28;20505;-86
2022/05/03 01:45:27;;;;;;;1.90;0.80;;;9.40;99.90;;;;;;5015054;28;20950;-86
2022/05/03 01:48:08;;;;;;;2.33;0.90;;;9.30;99.90;;;;;;5014984;28;20444;-86
2022/05/03 01:50:42;;;;;;;1.13;1.13;;;9.30;99.90;;;;;;5014937;28;20459;-86
2022/05/03 01:53:16;;;;;;;1.30;1.27;;;9.40;99.90;;;;;;5014875;28;20463;-86
2022/05/03 01:56:14;;;;;;;2.03;1.00;;;9.40;99.90;;;;;;5014877;28;20441;-86
2022/05/03 01:59:14;;;;;;;0.50;0.50;;;9.40;99.90;;;;;;5015248;28;20566;-86
2022/05/03 02:02:05;;;;;;;0.97;0.87;;;9.40;99.90;;;;;;5015034;28;20442;-87
2022/05/03 02:04:59;;;;;;;1.47;0.70;;;9.50;99.90;;;;;;5015127;28;20440;-87
2022/05/03 02:07:36;;;;;;;0.60;0.53;;;9.50;99.90;;;;;;5014599;28;20435;-86
2022/05/03 02:10:06;;;;;;;1.67;0.73;;;9.40;99.90;;;;;;5014544;28;20872;-86
2022/05/03 02:12:34;;;;;;;1.07;1.00;;;9.40;99.90;;;;;;5014758;28;20926;-86
2022/05/03 02:15:04;;;;;;;5.37;0.83;;;9.40;99.90;;;;;;5017088;28;20432;-86
2022/05/03 02:17:51;;;;;;;0.73;0.60;;;9.40;99.90;;;;;;5014517;28;20428;-86
2022/05/03 02:20:32;;;;;;;3.70;0.90;;;9.40;99.90;;;;;;5014550;28;20459;-86
2022/05/03 02:23:13;;;;;;;0.73;0.60;;;9.40;99.90;;;;;;5014901;28;20467;-86
2022/05/03 02:25:53;;;;;;;2.10;1.10;;;9.40;99.90;;;;;;5014511;28;20439;-86
2022/05/03 02:28:24;;;;;;;1.23;0.83;;;9.40;99.90;;;;;;5014400;28;20458;-87
2022/05/03 02:30:52;;;;;;;1.83;1.00;;;9.40;99.90;;;;;;5014380;28;20494;-87
2022/05/03 02:33:24;;;;;;;0.80;0.80;;;9.40;99.90;;;;;;5013926;28;20448;-86
2022/05/03 02:35:56;;;;;;;0.83;0.70;;;9.30;99.90;;;;;;5014225;28;20439;-86
2022/05/03 02:38:38;;;;;;;2.07;0.73;;;9.40;99.90;;;;;;5013858;28;20443;-86
2022/05/03 02:41:06;;;;;;;1.37;0.57;;;9.30;99.90;;;;;;5013828;28;20463;-86
2022/05/03 02:43:36;;;;;;;1.47;1.40;;;9.30;99.90;;;;;;5013805;28;20986;-86
2022/05/03 02:46:17;;;;;;;0.80;0.80;;;9.30;99.90;;;;;;5014303;28;20428;-85
2022/05/03 02:48:57;;;;;;;1.37;1.27;;;9.30;99.90;;;;;;5013797;28;20455;-86
2022/05/03 02:51:29;;;;;;;1.03;0.80;;;9.30;99.90;;;;;;5013992;28;20844;-86
2022/05/03 02:53:58;;;;;;;0.40;0.40;;;9.30;99.90;;;;;;5013984;28;20468;-86
2022/05/03 02:56:30;;;;;;;0.70;0.70;;;9.30;99.90;;;;;;5014034;28;20442;-86
2022/05/03 02:59:11;;;;;;;0.93;0.80;;;9.30;99.90;;;;;;5013806;28;20459;-86
2022/05/03 03:01:56;;;;;;;0.77;0.77;;;9.30;99.90;;;;;;5013860;28;20443;-86
2022/05/03 03:04:37;;;;;;;0.90;0.67;;;9.30;99.90;;;;;;5013859;28;20459;-86
2022/05/03 03:07:05;;;;;;;1.23;0.87;;;9.20;99.90;;;;;;5013713;28;20435;-86
2022/05/03 03:09:42;;;;;;;1.00;0.60;;;9.20;99.90;;;;;;5013810;28;20527;-86
2022/05/03 03:12:31;;;;;;;0.67;0.50;;;9.10;99.90;;;;;;5014053;28;20530;-86
2022/05/03 03:15:06;;;;;;;0.70;0.50;;;9.10;99.90;;;;;;5014051;28;20460;-86
2022/05/03 03:17:37;;;;;;;2.80;1.00;;;9.10;99.90;;;;;;5016172;28;20440;-86
2022/05/03 03:20:07;;;;;;;6.83;0.70;;;9.00;99.90;;;;;;5014503;28;20479;-86
2022/05/03 03:22:39;;;;;;;3.23;1.07;;;8.90;99.90;;;;;;5017869;28;20479;-86
2022/05/03 03:25:09;;;;;;;2.10;0.50;;;8.80;99.90;;;;;;5018112;28;20427;-86
2022/05/03 03:27:36;;;;;;;2.80;0.97;;;8.80;99.90;;;;;;5017411;28;20522;-86
2022/05/03 03:30:05;;;;;;;3.33;0.93;;;8.80;99.90;;;;;;5017663;28;20471;-86
2022/05/03 03:32:33;;;;;;;2.97;0.73;;;8.70;99.90;;;;;;5017572;28;20444;-86
2022/05/03 03:35:00;;;;;;;1.03;0.93;;;8.70;99.90;;;;;;5017210;28;20938;-86
2022/05/03 03:37:31;;;;;;;0.77;0.77;;;8.70;99.90;;;;;;5017540;28;20542;-86
2022/05/03 03:39:58;;;;;;;0.70;0.63;;;8.70;99.90;;;;;;5017084;28;20926;-86
2022/05/03 03:42:27;;;;;;;0.50;0.50;;;8.70;99.90;;;;;;5017288;28;20454;-86
2022/05/03 03:44:55;;;;;;;0.60;0.60;;;8.70;99.90;;;;;;5017310;28;20447;-86
2022/05/03 03:47:22;;;;;;;2.00;0.67;;;8.70;99.90;;;;;;5017410;28;20818;-86
2022/05/03 03:49:49;;;;;;;0.47;0.47;;;8.70;99.90;;;;;;5017038;28;20459;-86
2022/05/03 03:52:16;;;;;;;2.50;1.50;;;8.70;99.90;;;;;;5017114;28;20471;-86
2022/05/03 03:54:46;;;;;;;1.23;1.13;;;8.70;99.90;;;;;;5017297;28;20474;-86
2022/05/03 03:57:15;;;;;;;1.00;0.90;;;8.70;99.90;;;;;;5016944;28;20439;-86
2022/05/03 03:59:42;;;;;;;1.37;1.27;;;8.70;99.90;;;;;;5017056;28;20471;-86
2022/05/03 04:02:10;;;;;;;1.10;0.60;;;8.60;99.90;;;;;;5016715;28;20803;-86
2022/05/03 04:04:38;;;;;;;1.23;0.70;;;8.60;99.90;;;;;;5017055;28;20471;-86
2022/05/03 04:07:06;;;;;;;0.80;0.60;;;8.60;99.90;;;;;;5016869;28;20435;-86
2022/05/03 04:09:33;;;;;;;1.00;0.90;;;8.60;99.90;;;;;;5017030;28;20475;-87
2022/05/03 04:12:03;;;;;;;1.13;1.03;;;8.60;99.90;;;;;;5017236;28;20432;-86
2022/05/03 04:14:30;;;;;;;2.00;1.07;;;8.70;99.90;;;;;;5017135;28;20432;-86
2022/05/03 04:16:57;;;;;;;0.80;0.80;;;8.70;99.90;;;;;;5017841;28;20462;-87
2022/05/03 04:19:24;;;;;;;3.17;2.20;;;8.70;99.90;;;;;;5019235;28;20467;-87
2022/05/03 04:21:51;;;;;;;2.60;1.07;;;8.70;99.90;;;;;;5016837;28;20965;-87
2022/05/03 04:24:19;;;;;;;0.87;0.87;;;8.70;99.90;;;;;;5016486;28;20474;-87
2022/05/03 04:26:45;;;;;;;0.47;0.47;;;8.80;99.90;;;;;;5016650;28;20436;-87
2022/05/03 04:29:14;;;;;;;1.03;0.60;;;8.80;99.90;;;;;;5016786;28;20474;-86
2022/05/03 04:31:41;;;;;;;6.13;3.27;;;8.80;99.90;;;;;;5016640;28;20456;-87
2022/05/03 04:34:07;;;;;;;0.60;0.60;;;8.80;99.90;;;;;;5016831;28;20447;-87
2022/05/03 04:36:35;;;;;;;0.80;0.80;;;8.80;99.90;;;;;;5016594;28;20456;-87
2022/05/03 04:39:02;;;;;;;0.87;0.70;;;8.80;99.90;;;;;;5016410;28;20471;-87
2022/05/03 04:41:29;;;;;;;2.53;1.37;;;8.70;99.90;;;;;;5016282;28;20423;-86
2022/05/03 04:43:56;;;;;;;0.60;0.60;;;8.70;99.90;;;;;;5016538;28;20846;-87
2022/05/03 04:46:24;;;;;;;0.70;0.70;;;8.80;99.90;;;;;;5016169;28;20436;-87
2022/05/03 04:48:51;;;;;;;0.90;0.90;;;8.80;99.90;;;;;;5016409;28;20479;-87
2022/05/03 04:51:19;;;;;;;0.80;0.80;;;8.90;99.90;;;;;;5021136;28;20432;-87
2022/05/03 04:53:46;;;;;;;0.70;0.70;;;8.90;99.90;;;;;;5016035;28;20447;-87
2022/05/03 04:56:18;;;;;;;0.60;0.60;;;9.00;99.90;;;;;;5016370;28;20821;-87
2022/05/03 04:58:45;;;;;;;3.47;1.60;;;9.10;99.90;;;;;;5016178;28;20487;-87
2022/05/03 05:01:12;;;;;;;2.30;0.70;;;9.20;99.90;;;;;;5016221;28;20459;-87
2022/05/03 05:03:40;;;;;;;0.77;0.73;;;9.30;99.90;;;;;;5015904;28;20476;-86
2022/05/03 05:06:07;;;;;;;3.03;0.60;;;9.30;99.90;;;;;;5016235;28;20460;-87
2022/05/03 05:08:33;;;;;;;0.40;0.40;;;9.40;99.90;;;;;;5016039;28;20475;-87
2022/05/03 05:11:00;;;;;;;2.40;1.13;;;9.60;99.90;;;;;;5016211;28;20452;-87
2022/05/03 05:13:27;;;;;;;1.30;1.30;;;9.70;99.90;;;;;;5016238;28;20440;-86
2022/05/03 05:15:54;;;;;;;3.47;1.50;;;9.70;99.90;;;;;;5016074;28;20832;-87
2022/05/03 05:18:21;;;;;;;2.50;1.20;;;9.80;99.90;;;;;;5015926;28;20457;-87
2022/05/03 05:20:49;;;;;;;0.67;0.67;;;9.90;99.90;;;;;;5015835;28;20466;-87
2022/05/03 05:23:16;;;;;;;2.10;0.77;;;9.90;99.90;;;;;;5015376;28;20990;-86
2022/05/03 05:25:42;;;;;;;1.53;1.40;;;10.00;99.90;;;;;;5015693;28;20463;-87
2022/05/03 05:28:09;;;;;;;1.80;1.00;;;10.10;99.90;;;;;;5015622;28;20446;-87
2022/05/03 05:30:36;;;;;;;3.03;1.10;;;10.20;99.90;;;;;;5015578;28;20456;-87
2022/05/03 05:33:02;;;;;;;5.83;1.00;;;10.30;99.90;;;;;;5015606;28;20455;-87
2022/05/03 05:35:29;;;;;;;1.00;1.00;;;10.40;99.90;;;;;;5015510;28;20849;-87
2022/05/03 05:37:57;;;;;;;2.40;1.97;;;10.50;99.90;;;;;;5015261;28;20448;-87
2022/05/03 05:40:24;;;;;;;0.60;0.60;;;10.50;99.90;;;;;;5014882;28;21006;-87
2022/05/03 05:42:51;;;;;;;2.30;1.33;;;10.60;99.90;;;;;;5014991;28;20452;-87
2022/05/03 05:45:17;;;;;;;1.33;1.00;;;10.70;99.90;;;;;;5015545;28;20447;-87
2022/05/03 05:47:44;;;;;;;1.30;1.20;;;10.80;99.90;;;;;;5015674;28;20462;-88
2022/05/03 05:50:11;;;;;;;2.47;0.97;;;10.90;99.90;;;;;;5016144;28;20486;-87
2022/05/03 05:55:24;;;;;;;2.67;1.03;;;11.00;99.90;;;;;;5015240;28;20946;-87
2022/05/03 05:57:51;;;;;;;3.10;1.93;;;11.00;99.90;;;;;;5015063;28;20456;-87
2022/05/03 06:00:18;;;;;;;1.93;1.10;;;11.00;99.90;;;;;;5014706;28;20463;-87
2022/05/03 06:02:45;;;;;;;1.33;0.97;;;11.10;99.90;;;;;;5015194;28;20479;-87
2022/05/03 06:05:11;;;;;;;2.00;1.37;;;11.10;99.90;;;;;;5014842;28;20479;-89
2022/05/03 06:07:38;;;;;;;1.10;1.07;;;11.20;99.90;;;;;;5015173;28;20454;-87
2022/05/03 06:10:06;;;;;;;2.70;2.00;;;11.20;99.90;;;;;;5014904;28;20478;-87
2022/05/03 06:12:34;;;;;;;6.60;2.00;;;11.20;99.90;;;;;;5015255;28;20459;-87
2022/05/03 06:15:01;;;;;;;2.10;1.30;;;11.30;99.90;;;;;;5014903;28;20849;-87
2022/05/03 06:17:28;;;;;;;1.33;1.13;;;11.30;99.90;;;;;;5014695;28;20448;-87
2022/05/03 06:19:54;;;;;;;1.37;1.37;;;11.40;99.90;;;;;;5014626;28;20475;-87
2022/05/03 06:22:21;;;;;;;3.60;0.97;;;11.60;99.90;;;;;;5015268;28;20442;-86
2022/05/03 06:24:48;;;;;;;1.30;0.80;;;11.70;99.90;;;;;;5017608;28;20837;-88
2022/05/03 06:27:15;;;;;;;2.23;1.50;;;11.80;99.90;;;;;;5014630;28;20946;-87
2022/05/03 06:29:43;;;;;;;1.53;1.43;;;11.90;99.90;;;;;;5014621;28;20530;-87
2022/05/03 06:32:11;;;;;;;1.93;1.73;;;12.00;99.90;;;;;;5014684;28;20494;-87
2022/05/03 06:34:38;;;;;;;1.33;1.17;;;12.20;99.90;;;;;;5014955;28;20443;-87
2022/05/03 06:37:05;;;;;;;3.13;1.63;;;12.30;99.90;;;;;;5015089;28;20459;-87
2022/05/03 06:39:32;;;;;;;1.80;1.27;;;12.50;99.90;;;;;;5014147;28;20498;-87
2022/05/03 06:41:59;;;;;;;2.60;1.50;;;12.60;99.90;;;;;;5014753;28;20448;-87
2022/05/03 06:44:26;;;;;;;1.27;1.27;;;12.70;99.90;;;;;;5014123;28;20998;-87
2022/05/03 06:46:54;;;;;;;1.50;1.40;;;12.80;99.90;;;;;;5014525;28;20456;-86
2022/05/03 06:49:20;;;;;;;1.77;1.00;;;12.90;99.90;;;;;;5014474;28;20468;-87
2022/05/03 06:51:47;;;;;;;2.90;1.83;;;13.00;99.90;;;;;;5014175;28;20463;-87
2022/05/03 06:54:14;;;;;;;1.80;1.70;;;13.10;99.90;;;;;;5013636;28;20447;-87
2022/05/03 06:56:41;;;;;;;5.93;1.60;;;13.30;99.90;;;;;;5013965;28;20447;-87
2022/05/03 06:59:07;;;;;;;1.30;1.07;;;13.50;99.90;;;;;;5014347;28;20586;-86
2022/05/03 07:01:35;;;;;;;2.27;1.37;;;13.80;99.90;;;;;;5013730;28;20412;-86
2022/05/03 07:04:03;;;;;;;1.17;1.07;;;14.00;99.90;;;;;;5013951;28;20494;-86
2022/05/03 07:06:30;;;;;;;1.80;1.37;;;14.30;99.90;;;;;;5013542;28;20443;-87
2022/05/03 07:08:57;;;;;;;1.93;1.80;;;14.60;99.90;;;;;;5013819;28;20463;-86
2022/05/03 07:11:23;;;;;;;3.60;2.07;;;15.00;99.90;;;;;;5013705;28;20424;-86
2022/05/03 07:13:50;;;;;;;6.10;1.90;;;15.30;99.90;;;;;;5013793;28;20460;-86
2022/05/03 07:16:17;;;;;;;2.47;2.07;;;15.60;99.90;;;;;;5014057;28;20844;-87
2022/05/03 07:24:13;;;;;;;4.30;2.90;;;16.70;99.90;;;;;;5014295;28;20458;-86
2022/05/03 07:26:40;;;;;;;4.60;2.47;;;17.20;99.90;;;;;;5013474;28;20950;-86
2022/05/03 07:29:07;;;;;;;2.27;2.07;;;17.40;99.90;;;;;;5014129;28;20479;-86
2022/05/03 07:31:34;;;;;;;4.17;2.27;;;17.50;99.90;;;;;;5014039;28;20487;-86
2022/05/03 07:34:01;;;;;;;3.73;2.47;;;17.50;99.90;;;;;;5013670;28;20817;-87
2022/05/03 07:36:30;;;;;;;1.87;1.77;;;17.40;99.90;;;;;;5014483;28;20448;-87
2022/05/03 07:38:56;;;;;;;2.47;2.10;;;17.20;99.90;;;;;;5013555;28;20471;-86
2022/05/03 07:41:24;;;;;;;2.97;2.20;;;17.10;99.90;;;;;;5013780;28;20427;-86
2022/05/03 07:43:51;;;;;;;3.30;1.90;;;16.90;99.90;;;;;;5014165;28;20523;-87
2022/05/03 07:46:18;;;;;;;1.90;1.40;;;16.90;99.90;;;;;;5013502;28;20459;-86
2022/05/03 07:48:45;;;;;;;3.13;1.53;;;16.80;99.90;;;;;;5013135;28;21003;-86
2022/05/03 07:51:12;;;;;;;2.80;2.40;;;16.80;99.90;;;;;;5013490;28;20880;-86
2022/05/03 07:53:40;;;;;;;3.83;2.20;;;16.90;99.90;;;;;;5013425;28;20447;-86
2022/05/03 07:56:09;;;;;;;2.50;1.53;;;17.00;99.90;;;;;;5013352;28;20467;-87
2022/05/03 07:58:36;;;;;;;2.53;1.93;;;17.00;99.90;;;;;;5013980;28;20594;-87
2022/05/03 08:01:04;;;;;;;2.53;1.80;;;17.10;99.90;;;;;;5013245;28;20462;-87
2022/05/03 08:03:30;;;;;;;2.40;1.70;;;17.20;99.90;;;;;;5013394;28;20447;-87
2022/05/03 08:05:57;;;;;;;1.43;1.33;;;17.40;99.90;;;;;;5014222;28;20479;-87
2022/05/03 08:08:24;;;;;;;3.17;2.10;;;17.60;99.90;;;;;;5016506;28;20879;-86
2022/05/03 08:10:53;;;;;;;4.10;2.40;;;17.70;99.90;;;;;;5016521;28;20459;-81
2022/05/03 08:13:20;;;;;;;2.67;2.17;;;17.70;99.90;;;;;;5016228;28;20442;-83
2022/05/03 08:15:47;;;;;;;6.40;2.20;;;17.80;99.90;;;;;;5016408;28;20452;-83
2022/05/03 08:18:14;;;;;;;3.77;2.07;;;17.90;99.90;;;;;;5016342;28;20458;-83
2022/05/03 08:20:41;;;;;;;3.30;2.27;;;18.00;99.90;;;;;;5016263;28;20509;-83
2022/05/03 08:23:08;;;;;;;1.60;1.40;;;18.20;99.90;;;;;;5016303;28;20458;-83
2022/05/03 08:25:36;;;;;;;2.70;1.80;;;18.30;99.90;;;;;;5016184;28;20483;-84
2022/05/03 08:28:05;;;;;;;2.70;2.03;;;18.50;99.90;;;;;;5016214;28;20463;-83
2022/05/03 08:30:32;;;;;;;2.70;2.50;;;18.60;99.90;;;;;;5016609;28;20481;-87
2022/05/03 08:32:58;;;;;;;3.00;1.73;;;18.80;99.90;;;;;;5016655;28;20436;-87
2022/05/03 08:35:26;;;;;;;1.50;1.40;;;19.40;99.90;;;;;;5016677;28;20498;-88
2022/05/03 08:43:24;;;;;;;2.33;1.80;;;20.40;99.90;;;;;;5016356;28;20410;-87
2022/05/03 08:45:51;;;;;;;2.50;1.57;;;20.60;99.90;;;;;;5016440;28;20494;-87
2022/05/03 08:48:20;;;;;;;5.70;2.27;;;21.00;99.90;;;;;;5016405;28;20462;-87
2022/05/03 08:50:47;;;;;;;2.80;1.30;;;21.40;99.90;;;;;;5016210;28;20196;-88
2022/05/03 08:53:16;;;;;;;3.20;1.73;;;21.60;99.90;;;;;;5016672;28;20796;-87
2022/05/03 08:55:43;;;;;;;2.33;1.90;;;21.90;99.90;;;;;;5016295;28;20232;-87
2022/05/03 08:58:14;;;;;;;5.33;1.60;;;21.90;99.90;;;;;;5015979;28;20193;-86
2022/05/03 09:00:43;;;;;;;4.03;2.50;;;21.90;99.90;;;;;;5016140;28;20214;-87
2022/05/03 09:03:12;;;;;;;5.73;2.00;;;21.70;99.90;;;;;;5016050;28;20263;-87
2022/05/03 09:05:40;;;;;;;2.40;1.43;;;21.50;99.90;;;;;;5016260;28;20226;-86
2022/05/03 09:08:12;;;;;;;1.60;1.13;;;21.10;99.90;;;;;;5015928;28;20192;-87
2022/05/03 09:10:39;;;;;;;2.60;1.47;;;20.90;99.90;;;;;;5015930;28;20232;-87
2022/05/03 09:13:18;;;;;;;3.57;2.27;;;21.00;99.90;;;;;;5015589;28;20215;-88
2022/05/03 09:15:47;;;;;;;3.30;1.97;;;21.30;99.90;;;;;;5016082;28;20207;-87
2022/05/03 09:18:21;;;;;;;2.40;1.10;;;21.40;99.90;;;;;;5014553;28;20195;-87
2022/05/03 09:26:18;;;;;;;2.63;1.30;;;22.00;96.60;;;;;;5015189;28;20273;-87
2022/05/03 09:28:46;;;;;;;2.93;1.33;;;22.10;99.10;;;;;;5015559;28;20311;-87
2022/05/03 09:31:15;;;;;;;1.27;1.17;;;22.00;95.40;;;;;;5016179;28;20177;-87
2022/05/03 09:33:43;;;;;;;1.10;1.00;;;21.70;95.20;;;;;;5015805;28;20200;-87
2022/05/03 09:36:11;;;;;;;1.03;1.03;;;21.40;95.10;;;;;;5015418;28;20211;-87
2022/05/03 09:38:47;;;;;;;0.90;0.80;;;21.30;92.70;;;;;;5014930;28;20471;-86
2022/05/03 09:41:15;;;;;;;4.10;0.93;;;21.30;92.60;;;;;;5014882;28;20702;-86
2022/05/03 09:44:07;;;;;;;1.33;0.90;;;21.30;93.00;;;;;;5015043;28;20235;-85
2022/05/03 09:46:54;;;;;;;0.90;0.90;;;21.40;93.10;;;;;;5015394;28;20204;-89
2022/05/03 09:49:34;;;;;;;0.80;0.80;;;21.70;91.70;;;;;;5015476;28;20491;-88
2022/05/03 09:52:03;;;;;;;1.77;0.73;;;21.70;91.70;;;;;;5015890;28;20240;-88
2022/05/03 09:54:45;;;;;;;1.10;0.80;;;21.50;90.50;;;;;;5016061;28;20200;-89
2022/05/03 09:57:16;;;;;;;1.20;1.20;;;21.20;90.20;;;;;;5015709;28;20279;-90
2022/05/03 09:59:43;;;;;;;0.70;0.70;;;20.80;89.50;;;;;;5016425;28;20554;-90
2022/05/03 10:02:12;;;;;;;0.97;0.90;;;20.50;91.30;;;;;;5016161;28;20570;-89
2022/05/03 10:04:39;;;;;;;2.70;0.83;;;20.70;91.40;;;;;;5018271;28;20479;-89
2022/05/03 10:07:05;;;;;;;1.33;1.10;;;20.90;90.60;;;;;;5016786;28;20451;-88
2022/05/03 10:09:33;;;;;;;1.57;1.17;;;21.00;88.30;;;;;;5016103;28;20475;-88
2022/05/03 10:12:01;;;;;;;0.90;0.90;;;20.90;88.80;;;;;;5015451;28;20451;-89
2022/05/03 10:14:28;;;;;;;1.33;0.93;;;20.60;87.10;;;;;;5015383;28;20454;-88
2022/05/03 10:22:27;;;;;;;3.00;1.27;;;20.00;91.50;;;;;;5015040;28;20414;-88
2022/05/03 10:24:54;;;;;;;4.40;1.10;;;20.50;91.10;;;;;;5014968;28;20487;-88
2022/05/03 10:27:25;;;;;;;0.60;0.60;;;21.10;88.30;;;;;;5015622;28;20446;-88
2022/05/03 10:30:20;;;;;;;2.33;0.97;;;21.90;83.10;;;;;;5014767;28;20297;-88
2022/05/03 10:33:06;;;;;;;1.47;1.27;;;22.40;81.40;;;;;;5014836;28;20196;-84
2022/05/03 10:35:36;;;;;;;1.13;1.10;;;22.20;79.30;;;;;;5014738;28;20204;-85
2022/05/03 10:38:07;;;;;;;1.83;1.40;;;21.80;79.40;;;;;;5015059;28;20208;-91
2022/05/03 10:40:39;;;;;;;1.60;1.10;;;21.40;80.60;;;;;;5014848;28;20240;-89
2022/05/03 10:43:11;;;;;;;1.10;0.90;;;21.40;79.30;;;;;;5015038;28;20820;-89
2022/05/03 10:45:52;;;;;;;0.80;0.80;;;21.40;81.00;;;;;;5014776;28;20514;-88
2022/05/03 10:48:27;;;;;;;1.47;0.83;;;21.50;78.50;;;;;;5014936;28;20454;-87
2022/05/03 10:50:57;;;;;;;0.60;0.60;;;21.10;80.00;;;;;;5014151;28;20958;-88
2022/05/03 10:53:29;;;;;;;1.00;1.00;;;20.90;79.70;;;;;;5014405;28;20428;-87
2022/05/03 10:56:18;;;;;;;1.03;0.73;;;20.50;81.40;;;;;;5014281;28;20442;-87
2022/05/03 10:58:48;;;;;;;1.43;0.80;;;20.20;83.10;;;;;;5013868;28;20462;-87
2022/05/03 11:01:18;;;;;;;3.10;0.70;;;20.10;84.10;;;;;;5014102;28;20454;-86
2022/05/03 11:04:07;;;;;;;1.13;0.90;;;19.90;83.70;;;;;;5014254;28;20486;-86
2022/05/03 11:06:46;;;;;;;0.83;0.83;;;19.60;83.90;;;;;;5015161;28;20488;-86
2022/05/03 11:09:15;;;;;;;0.90;0.90;;;19.50;83.50;;;;;;5013983;28;20463;-86
2022/05/03 11:11:59;;;;;;;0.80;0.60;;;19.40;84.00;;;;;;5013865;28;20459;-86
2022/05/03 11:14:55;;;;;;;0.67;0.67;;;19.50;84.50;;;;;;5013786;28;20442;-85
2022/05/03 11:17:22;;;;;;;1.00;0.70;;;19.60;86.20;;;;;;5014396;28;20438;-86
2022/05/03 11:20:00;;;;;;;0.70;0.70;;;19.70;85.00;;;;;;5013473;28;20828;-86
2022/05/03 11:22:36;;;;;;;1.83;1.43;;;19.80;80.90;;;;;;5013433;28;20462;-85
2022/05/03 11:25:13;;;;;;;1.10;0.80;;;19.70;81.80;;;;;;5013534;28;20464;-85
2022/05/03 11:27:40;;;;;;;0.80;0.80;;;19.50;83.70;;;;;;5013462;28;20442;-85
2022/05/03 11:30:10;;;;;;;1.00;0.80;;;19.30;83.40;;;;;;5013331;28;21175;-85
2022/05/03 11:32:39;;;;;;;0.90;0.90;;;19.20;84.50;;;;;;5013137;28;20966;-85
2022/05/03 11:35:14;;;;;;;1.03;1.00;;;19.10;83.90;;;;;;5013443;28;20453;-85
2022/05/03 11:37:54;;;;;;;1.00;0.90;;;19.20;85.10;;;;;;5013346;28;20461;-85
2022/05/03 11:40:22;;;;;;;0.67;0.63;;;19.30;86.70;;;;;;5012910;28;20892;-85
2022/05/03 11:42:51;;;;;;;0.70;0.70;;;19.40;82.10;;;;;;5017063;28;20447;-85
2022/05/03 11:45:18;;;;;;;0.60;0.60;;;19.30;83.50;;;;;;5017080;28;20853;-84
2022/05/03 11:47:47;;;;;;;1.37;0.90;;;19.30;86.50;;;;;;5017295;28;20447;-84
2022/05/03 11:55:58;;;;;;;1.03;0.93;;;19.40;87.00;;;;;;5017028;28;20501;-84
2022/05/03 11:56:00;;;;;;;0.87;0.87;;;19.40;87.00;;;;;;5016815;28;20403;-85
2022/05/03 11:58:29;;;;;;;1.03;0.90;;;19.70;87.90;;;;;;5017076;28;20495;-85
2022/05/03 12:00:55;;;;;;;1.13;0.80;;;20.10;84.40;;;;;;5017306;28;20442;-85
2022/05/03 12:03:22;;;;;;;0.87;0.70;;;20.30;81.60;;;;;;5016537;28;20435;-85
2022/05/03 12:06:03;;;;;;;1.53;0.90;;;20.50;82.00;;;;;;5016442;28;21008;-85
2022/05/03 12:08:34;;;;;;;0.57;0.50;;;20.40;79.90;;;;;;5016450;28;20521;-84
2022/05/03 12:11:00;;;;;;;0.83;0.83;;;20.30;79.60;;;;;;5016761;28;20454;-84
2022/05/03 12:13:30;;;;;;;1.27;1.03;;;20.30;79.20;;;;;;5016449;28;20439;-84
2022/05/03 12:16:15;;;;;;;1.93;1.03;;;20.20;81.60;;;;;;5016704;28;20420;-84
2022/05/03 12:18:44;;;;;;;1.70;1.00;;;20.00;84.10;;;;;;5016876;28;20566;-85
2022/05/03 12:21:13;;;;;;;1.00;0.70;;;20.00;84.10;;;;;;5016134;28;20930;-84
2022/05/03 12:23:46;;;;;;;0.70;0.70;;;20.00;83.00;;;;;;5016316;28;20447;-84
2022/05/03 12:26:27;;;;;;;1.30;1.20;;;19.90;85.00;;;;;;5016006;28;20513;-83
2022/05/03 12:28:56;;;;;;;0.83;0.70;;;19.70;85.60;;;;;;5016460;28;20467;-84
2022/05/03 12:31:28;;;;;;;1.43;0.80;;;19.90;78.00;;;;;;5016435;28;20466;-84
2022/05/03 12:33:56;;;;;;;1.30;0.90;;;19.80;80.00;;;;;;5016432;28;20435;-84
2022/05/03 12:36:31;;;;;;;1.27;1.17;;;19.60;80.40;;;;;;5016579;28;20447;-84
2022/05/03 12:39:09;;;;;;;1.43;1.10;;;19.40;83.70;;;;;;5015781;28;20471;-85
2022/05/03 12:41:37;;;;;;;2.57;1.50;;;19.20;91.30;;;;;;5016167;28;20439;-84
2022/05/03 12:44:05;;;;;;;1.67;0.80;;;18.80;96.00;;;;;;5016072;28;20447;-85
2022/05/03 12:46:33;;;;;;;1.40;0.90;;;18.40;99.90;;;;;;5015860;28;20491;-85
2022/05/03 12:49:03;;;;;;;0.70;0.67;;;18.10;99.90;;;;;;5015740;28;20480;-85
2022/05/03 12:51:30;;;;;;;3.53;1.30;;;17.90;99.90;;;;;;5015584;28;20447;-85
2022/05/03 12:54:01;;;;;;;1.47;1.20;;;17.70;99.90;;;;;;5015779;28;20456;-85
2022/05/03 12:59:13;;;;;;;1.33;0.70;;;17.60;99.90;;;;;;5015455;28;20958;-84
2022/05/03 13:01:40;;;;;;;0.80;0.80;;;17.60;99.90;;;;;;5015365;28;20903;-85
2022/05/03 13:04:08;;;;;;;1.17;0.93;;;17.50;99.90;;;;;;5015583;28;20468;-84
2022/05/03 13:06:35;;;;;;;1.00;0.80;;;17.40;99.90;;;;;;5015416;28;20490;-84
2022/05/03 13:09:04;;;;;;;1.67;0.70;;;17.30;99.90;;;;;;5015107;28;20987;-84
2022/05/03 13:11:31;;;;;;;0.80;0.50;;;17.20;99.90;;;;;;5016694;28;20460;-87
2022/05/03 13:13:58;;;;;;;0.90;0.80;;;17.40;99.90;;;;;;5015922;28;20451;-85
2022/05/03 13:16:25;;;;;;;1.37;0.87;;;17.50;99.90;;;;;;5015642;28;20443;-85
2022/05/03 13:18:51;;;;;;;0.80;0.70;;;17.50;99.90;;;;;;5015874;28;20463;-89
2022/05/03 13:21:18;;;;;;;1.13;0.73;;;17.40;99.90;;;;;;5015613;28;20815;-83
2022/05/03 13:23:45;;;;;;;1.00;0.80;;;17.10;99.90;;;;;;5015389;28;20452;-87
2022/05/03 13:26:13;;;;;;;1.83;0.70;;;16.80;99.90;;;;;;5015376;28;20466;-86
2022/05/03 13:28:40;;;;;;;1.47;0.70;;;16.40;99.90;;;;;;5016369;28;20479;-86
2022/05/03 13:31:07;;;;;;;0.83;0.83;;;15.80;99.90;;;;;;5015243;28;20463;-88
2022/05/03 13:33:33;;;;;;;4.93;1.00;;;15.50;99.90;;;;;;5015343;28;20440;-86
2022/05/03 13:41:29;;;;;;;0.70;0.63;;;15.00;99.90;;;;;;5015464;28;20435;-87
2022/05/03 13:43:58;;;;;;;1.50;0.70;;;14.70;99.90;;;;;;5015392;28;20428;-86
2022/05/03 13:46:25;;;;;;;0.50;0.50;;;14.50;99.90;;;;;;5015584;28;20472;-88